createdAt,value
2018-05-08T00:01:09.195Z,53.10
2018-05-08T00:03:35.389Z,53.10
2018-05-08T00:06:01.582Z,53.50
2018-05-08T00:08:27.770Z,53.70
2018-05-08T00:10:53.934Z,53.70
2018-05-08T00:13:20.132Z,54.10
2018-05-08T00:15:46.290Z,54.10
2018-05-08T00:18:12.538Z,54.40
2018-05-08T00:20:38.696Z,54.40
2018-05-08T00:23:04.885Z,54.60
2018-05-08T00:25:31.112Z,54.70
2018-05-08T00:27:57.303Z,54.60
2018-05-08T00:30:24.218Z,55.00
2018-05-08T00:32:50.417Z,54.90
2018-05-08T00:35:16.569Z,54.90
2018-05-08T00:37:42.741Z,55.00
2018-05-08T00:40:08.925Z,55.30
2018-05-08T00:42:35.186Z,55.00
2018-05-08T00:45:01.402Z,55.00
2018-05-08T00:47:27.585Z,54.60
2018-05-08T00:49:53.763Z,54.80
2018-05-08T00:52:20.743Z,55.10
2018-05-08T00:54:59.105Z,55.00
2018-05-08T00:57:25.331Z,55.40
2018-05-08T00:59:51.516Z,55.30
2018-05-08T01:02:17.686Z,55.80
2018-05-08T01:04:43.903Z,55.70
2018-05-08T01:07:10.097Z,55.80
2018-05-08T01:09:36.286Z,55.90
2018-05-08T01:12:02.483Z,56.10
2018-05-08T01:14:28.681Z,56.60
2018-05-08T01:16:54.854Z,56.60
2018-05-08T01:19:21.073Z,56.80
2018-05-08T01:21:47.245Z,56.90
2018-05-08T01:24:13.443Z,57.30
2018-05-08T01:26:40.379Z,57.40
2018-05-08T01:29:06.574Z,57.40
2018-05-08T01:31:32.796Z,57.60
2018-05-08T01:33:58.974Z,57.40
2018-05-08T01:36:25.914Z,56.90
2018-05-08T01:38:52.901Z,57.10
2018-05-08T01:41:19.109Z,56.90
2018-05-08T01:43:45.309Z,56.80
2018-05-08T01:46:11.478Z,56.90
2018-05-08T01:48:37.688Z,57.00
2018-05-08T01:51:03.911Z,57.20
2018-05-08T01:53:30.119Z,56.90
2018-05-08T01:55:56.293Z,57.00
2018-05-08T01:58:22.618Z,57.00
2018-05-08T02:00:48.774Z,57.20
2018-05-08T02:03:14.958Z,57.20
2018-05-08T02:05:41.123Z,56.80
2018-05-08T02:08:07.287Z,57.30
2018-05-08T02:10:33.544Z,57.00
2018-05-08T02:12:59.744Z,56.80
2018-05-08T02:15:25.933Z,57.10
2018-05-08T02:17:52.095Z,56.90
2018-05-08T02:20:18.349Z,57.00
2018-05-08T02:22:44.470Z,57.00
2018-05-08T02:25:10.670Z,56.90
2018-05-08T02:27:37.635Z,57.10
2018-05-08T02:30:03.894Z,57.10
2018-05-08T02:32:30.074Z,57.10
2018-05-08T02:34:56.269Z,57.40
2018-05-08T02:37:22.429Z,57.70
2018-05-08T02:39:49.355Z,57.80
2018-05-08T02:42:16.299Z,58.00
2018-05-08T02:44:42.485Z,58.00
2018-05-08T02:47:08.663Z,57.90
2018-05-08T02:49:35.587Z,58.20
2018-05-08T02:52:01.773Z,58.20
2018-05-08T02:54:27.955Z,58.00
2018-05-08T02:56:54.126Z,58.10
2018-05-08T02:59:20.301Z,58.20
2018-05-08T03:01:46.490Z,58.20
2018-05-08T03:04:12.672Z,58.40
2018-05-08T03:06:38.846Z,58.70
2018-05-08T03:09:05.086Z,58.80
2018-05-08T03:11:31.246Z,58.80
2018-05-08T03:13:58.175Z,58.50
2018-05-08T03:16:24.430Z,58.50
2018-05-08T03:18:50.631Z,58.80
2018-05-08T03:21:16.820Z,58.90
2018-05-08T03:23:43.007Z,59.30
2018-05-08T03:26:09.185Z,59.30
2018-05-08T03:28:35.362Z,59.60
2018-05-08T03:31:02.797Z,59.30
2018-05-08T03:33:28.976Z,59.30
2018-05-08T03:35:55.145Z,59.30
2018-05-08T03:38:21.331Z,59.60
2018-05-08T03:40:47.552Z,59.40
2018-05-08T03:43:13.727Z,59.40
2018-05-08T03:45:39.914Z,59.70
2018-05-08T03:48:06.087Z,59.90
2018-05-08T03:50:32.314Z,59.50
2018-05-08T03:52:58.501Z,59.80
2018-05-08T03:55:24.693Z,59.80
2018-05-08T03:57:50.859Z,60.00
2018-05-08T04:00:29.367Z,60.20
2018-05-08T04:03:07.678Z,60.10
2018-05-08T04:05:46.075Z,60.50
2018-05-08T04:08:22.331Z,60.60
2018-05-08T04:10:48.479Z,60.50
2018-05-08T04:13:14.642Z,60.30
2018-05-08T04:15:40.830Z,60.50
2018-05-08T04:18:07.126Z,60.80
2018-05-08T04:20:33.321Z,60.80
2018-05-08T04:22:59.506Z,61.40
2018-05-08T04:25:25.726Z,61.60
2018-05-08T04:27:51.906Z,61.60
2018-05-08T04:30:18.110Z,61.50
2018-05-08T04:32:44.337Z,61.70
2018-05-08T04:35:10.533Z,61.80
2018-05-08T04:37:36.717Z,61.50
2018-05-08T04:40:02.985Z,61.30
2018-05-08T04:42:29.158Z,61.40
2018-05-08T04:44:55.350Z,61.20
2018-05-08T04:47:21.581Z,61.10
2018-05-08T04:49:47.747Z,60.60
2018-05-08T04:52:13.927Z,61.70
2018-05-08T04:54:40.084Z,61.20
2018-05-08T04:57:06.335Z,61.50
2018-05-08T04:59:32.547Z,61.40
2018-05-08T05:01:58.769Z,62.00
2018-05-08T05:04:24.943Z,61.80
2018-05-08T05:06:51.162Z,61.40
2018-05-08T05:09:17.306Z,60.90
2018-05-08T05:11:43.530Z,61.20
2018-05-08T05:14:09.717Z,60.60
2018-05-08T05:16:35.957Z,61.00
2018-05-08T05:19:02.951Z,60.10
2018-05-08T05:21:29.171Z,60.40
2018-05-08T05:23:55.354Z,60.50
2018-05-08T05:26:21.559Z,60.20
2018-05-08T05:28:47.721Z,59.70
2018-05-08T05:31:13.927Z,60.00
2018-05-08T05:33:40.193Z,59.50
2018-05-08T05:36:06.387Z,59.70
2018-05-08T05:38:32.614Z,59.30
2018-05-08T05:40:58.870Z,59.20
2018-05-08T05:43:25.051Z,59.10
2018-05-08T05:45:51.250Z,58.90
2018-05-08T05:48:17.421Z,58.80
2018-05-08T05:50:43.605Z,58.60
2018-05-08T05:53:09.769Z,58.10
2018-05-08T05:55:35.950Z,57.60
2018-05-08T05:58:02.173Z,57.80
2018-05-08T06:00:28.365Z,58.10
2018-05-08T06:02:54.554Z,57.70
2018-05-08T06:05:20.794Z,57.50
2018-05-08T06:07:46.989Z,57.90
2018-05-08T06:10:13.184Z,57.90
2018-05-08T06:12:39.370Z,57.50
2018-05-08T06:15:05.944Z,57.40
2018-05-08T06:17:32.138Z,56.90
2018-05-08T06:19:58.300Z,56.70
2018-05-08T06:22:25.222Z,57.30
2018-05-08T06:24:51.427Z,57.20
2018-05-08T06:27:17.618Z,57.10
2018-05-08T06:29:43.799Z,56.80
2018-05-08T06:32:09.958Z,56.80
2018-05-08T06:34:36.149Z,56.40
2018-05-08T06:37:03.468Z,56.50
2018-05-08T06:39:29.704Z,56.00
2018-05-08T06:41:55.913Z,54.60
2018-05-08T06:44:22.232Z,55.20
2018-05-08T06:46:48.318Z,55.60
2018-05-08T06:49:14.502Z,55.80
2018-05-08T06:51:40.671Z,56.30
2018-05-08T06:54:06.865Z,55.30
2018-05-08T06:56:33.047Z,55.20
2018-05-08T06:58:59.238Z,55.00
2018-05-08T07:01:25.426Z,55.60
2018-05-08T07:03:51.602Z,54.60
2018-05-08T07:06:17.781Z,54.40
2018-05-08T07:08:43.952Z,54.20
2018-05-08T07:11:10.140Z,53.90
2018-05-08T07:13:36.323Z,54.50
2018-05-08T07:16:02.720Z,54.70
2018-05-08T07:18:28.815Z,55.00
2018-05-08T07:20:55.022Z,54.80
2018-05-08T07:23:21.202Z,54.10
2018-05-08T07:25:47.405Z,53.00
2018-05-08T07:28:13.594Z,53.40
2018-05-08T07:30:40.534Z,53.60
2018-05-08T07:33:06.765Z,53.60
2018-05-08T07:35:32.950Z,52.80
2018-05-08T07:37:59.115Z,52.50
2018-05-08T07:40:26.052Z,54.50
2018-05-08T07:42:52.213Z,54.40
2018-05-08T07:45:18.421Z,52.50
2018-05-08T07:47:45.327Z,51.70
2018-05-08T07:50:11.655Z,51.80
2018-05-08T07:52:37.822Z,53.20
2018-05-08T07:55:04.015Z,52.00
2018-05-08T07:57:30.196Z,52.30
2018-05-08T07:59:56.386Z,50.90
2018-05-08T08:02:23.292Z,51.20
2018-05-08T08:04:49.494Z,51.20
2018-05-08T08:07:15.682Z,50.80
2018-05-08T08:09:45.141Z,51.10
2018-05-08T08:12:12.189Z,50.70
2018-05-08T08:14:38.361Z,50.10
2018-05-08T08:17:06.705Z,51.60
2018-05-08T08:19:32.882Z,51.60
2018-05-08T08:21:59.081Z,50.20
2018-05-08T08:24:25.286Z,51.40
2018-05-08T08:26:51.482Z,51.10
2018-05-08T08:29:17.655Z,51.00
2018-05-08T08:31:43.859Z,49.30
2018-05-08T08:34:10.073Z,50.40
2018-05-08T08:36:36.365Z,50.50
2018-05-08T08:39:03.397Z,49.30
2018-05-08T08:41:30.341Z,48.30
2018-05-08T08:43:56.599Z,48.90
2018-05-08T08:46:22.839Z,47.60
2018-05-08T08:48:49.003Z,49.00
2018-05-08T08:51:15.183Z,48.70
2018-05-08T08:53:41.354Z,47.30
2018-05-08T08:56:10.369Z,46.80
2018-05-08T08:58:37.302Z,48.30
2018-05-08T09:01:03.529Z,48.30
2018-05-08T09:03:29.724Z,46.70
2018-05-08T09:05:55.926Z,46.80
2018-05-08T09:08:22.318Z,48.60
2018-05-08T09:10:48.534Z,46.80
2018-05-08T09:13:14.729Z,46.30
2018-05-08T09:15:40.927Z,45.60
2018-05-08T09:18:08.765Z,45.10
2018-05-08T09:20:34.942Z,45.10
2018-05-08T09:23:01.135Z,46.10
2018-05-08T09:42:44.092Z,40.90
2018-05-08T09:45:11.177Z,40.20
2018-05-08T09:47:37.382Z,41.10
2018-05-08T09:50:03.670Z,40.10
2018-05-08T09:52:30.594Z,39.20
2018-05-08T09:54:56.782Z,39.10
2018-05-08T09:57:23.031Z,39.40
2018-05-08T09:59:49.227Z,40.10
2018-05-08T10:02:15.434Z,39.50
2018-05-08T10:04:41.602Z,38.50
2018-05-08T10:07:07.796Z,39.80
2018-05-08T10:09:33.966Z,38.00
2018-05-08T10:12:00.141Z,38.00
2018-05-08T10:14:26.305Z,36.50
2018-05-08T10:16:52.572Z,38.20
2018-05-08T10:19:18.742Z,38.80
2018-05-08T10:21:44.943Z,37.60
2018-05-08T10:24:11.857Z,38.60
2018-05-08T10:26:38.125Z,38.60
2018-05-08T10:29:04.236Z,37.10
2018-05-08T10:31:31.150Z,37.00
2018-05-08T10:33:57.320Z,36.90
2018-05-08T10:36:23.544Z,38.10
2018-05-08T10:38:49.710Z,36.50
2018-05-08T10:41:15.910Z,37.00
2018-05-08T10:43:42.093Z,36.30
2018-05-08T10:46:08.309Z,36.80
2018-05-08T10:48:34.492Z,37.00
2018-05-08T10:51:00.654Z,37.30
2018-05-08T10:53:26.866Z,38.60
2018-05-08T10:55:53.032Z,36.00
2018-05-08T10:58:19.282Z,37.50
2018-05-08T11:00:45.506Z,35.50
2018-05-08T11:03:12.439Z,37.40
2018-05-08T11:05:38.605Z,37.40
2018-05-08T11:08:04.840Z,35.90
2018-05-08T11:10:31.015Z,34.30
2018-05-08T11:12:57.951Z,34.40
2018-05-08T11:15:24.137Z,34.90
2018-05-08T11:17:50.355Z,32.90
2018-05-08T11:20:16.528Z,32.30
2018-05-08T11:22:42.757Z,33.60
2018-05-08T11:25:08.961Z,35.10
2018-05-08T11:27:35.153Z,34.90
2018-05-08T11:30:01.371Z,31.70
2018-05-08T11:32:27.567Z,33.30
2018-05-08T11:34:53.750Z,33.90
2018-05-08T11:37:19.947Z,34.00
2018-05-08T11:39:46.122Z,33.60
2018-05-08T11:42:12.321Z,32.00
2018-05-08T11:44:38.554Z,32.70
2018-05-08T11:47:05.532Z,31.50
2018-05-08T11:49:31.736Z,31.50
2018-05-08T11:51:57.932Z,30.00
2018-05-08T11:54:24.146Z,30.60
2018-05-08T11:56:51.047Z,31.40
2018-05-08T11:59:17.232Z,31.40
2018-05-08T12:01:43.429Z,30.90
2018-05-08T12:04:09.651Z,30.90
2018-05-08T12:06:35.860Z,30.60
2018-05-08T12:09:02.240Z,30.50
2018-05-08T12:11:28.415Z,30.70
2018-05-08T12:13:54.634Z,31.20
2018-05-08T12:16:20.815Z,31.10
2018-05-08T12:18:47.749Z,31.00
2018-05-08T12:21:13.908Z,30.90
2018-05-08T12:23:40.110Z,30.10
2018-05-08T12:26:07.038Z,29.50
2018-05-08T12:28:33.226Z,29.50
2018-05-08T12:31:06.222Z,30.10
2018-05-08T12:33:32.455Z,30.60
2018-05-08T12:35:58.635Z,30.10
2018-05-08T12:38:24.840Z,30.20
2018-05-08T12:40:51.042Z,29.60
2018-05-08T12:43:17.242Z,29.70
2018-05-08T12:45:43.394Z,28.20
2018-05-08T12:48:09.587Z,28.10
2018-05-08T12:50:35.761Z,28.10
2018-05-08T12:53:01.958Z,28.90
2018-05-08T12:55:28.126Z,29.80
2018-05-08T12:57:55.079Z,29.90
2018-05-08T13:00:21.258Z,29.80
2018-05-08T13:02:47.461Z,30.30
2018-05-08T13:05:13.719Z,28.90
2018-05-08T13:07:39.909Z,30.20
2018-05-08T13:10:06.095Z,29.50
2018-05-08T13:12:33.021Z,30.00
2018-05-08T13:14:59.214Z,30.00
2018-05-08T13:17:25.418Z,30.00
2018-05-08T13:19:51.647Z,30.50
2018-05-08T13:22:17.825Z,30.60
2018-05-08T13:24:44.043Z,28.70
2018-05-08T13:27:10.246Z,28.70
2018-05-08T13:29:36.443Z,28.60
2018-05-08T13:32:03.466Z,28.60
2018-05-08T13:34:29.677Z,28.60
2018-05-08T13:36:56.498Z,28.00
2018-05-08T13:39:22.729Z,28.90
2018-05-08T13:41:48.943Z,28.80
2018-05-08T13:44:15.187Z,27.60
2018-05-08T13:46:41.406Z,28.30
2018-05-08T13:49:07.630Z,27.90
2018-05-08T13:51:33.826Z,27.50
2018-05-08T13:54:00.782Z,28.50
2018-05-08T13:56:26.997Z,28.40
2018-05-08T13:58:53.198Z,29.30
2018-05-08T14:01:19.378Z,28.30
2018-05-08T14:03:45.576Z,27.00
2018-05-08T14:06:12.019Z,27.40
2018-05-08T14:08:38.266Z,27.50
2018-05-08T14:11:04.468Z,28.10
2018-05-08T14:13:31.419Z,28.30
2018-05-08T14:15:57.656Z,28.30
2018-05-08T14:18:23.874Z,27.00
2018-05-08T14:20:50.069Z,27.50
2018-05-08T14:23:16.330Z,28.20
2018-05-08T14:25:42.527Z,28.10
2018-05-08T14:28:08.706Z,28.70
2018-05-08T14:30:34.910Z,26.90
2018-05-08T14:33:01.859Z,28.70
2018-05-08T14:35:28.085Z,28.70
2018-05-08T14:37:54.328Z,27.20
2018-05-08T14:40:20.569Z,27.60
2018-05-08T14:42:46.800Z,27.80
2018-05-08T14:45:13.121Z,27.90
2018-05-08T14:47:39.309Z,28.40
2018-05-08T14:50:05.497Z,28.40
2018-05-08T14:52:31.710Z,27.50
2018-05-08T14:54:57.918Z,27.50
2018-05-08T14:57:24.101Z,28.50
2018-05-08T14:59:50.310Z,28.30
2018-05-08T15:02:16.519Z,28.40
2018-05-08T15:04:42.716Z,27.90
2018-05-08T15:07:08.885Z,28.00
2018-05-08T15:09:35.090Z,29.30
2018-05-08T15:12:01.322Z,27.70
2018-05-08T15:14:27.545Z,27.80
2018-05-08T15:16:53.771Z,28.20
2018-05-08T15:19:20.001Z,28.30
2018-05-08T15:21:46.265Z,28.30
2018-05-08T15:24:12.470Z,28.90
2018-05-08T15:26:38.650Z,29.30
2018-05-08T15:29:04.855Z,28.10
2018-05-08T15:31:31.049Z,27.70
2018-05-08T15:33:57.271Z,27.80
2018-05-08T15:36:23.470Z,28.10
2018-05-08T15:38:49.672Z,27.80
2018-05-08T15:41:15.907Z,28.50
2018-05-08T15:43:42.081Z,28.50
2018-05-08T15:46:08.266Z,26.60
2018-05-08T15:48:35.190Z,23.30
2018-05-08T15:51:01.382Z,23.30
2018-05-08T15:53:27.596Z,22.30
2018-05-08T15:55:53.802Z,21.40
2018-05-08T15:58:19.973Z,20.70
2018-05-08T16:00:46.195Z,19.60
2018-05-08T16:03:12.370Z,18.80
2018-05-08T16:05:38.577Z,17.90
2018-05-08T16:08:04.785Z,17.70
2018-05-08T16:10:31.504Z,16.60
2018-05-08T16:12:57.733Z,16.10
2018-05-08T16:15:23.921Z,15.70
2018-05-08T16:17:50.843Z,15.80
2018-05-08T16:20:17.113Z,15.80
2018-05-08T16:22:43.316Z,15.60
2018-05-08T16:25:09.518Z,15.80
2018-05-08T16:27:35.806Z,15.50
2018-05-08T16:30:02.065Z,15.90
2018-05-08T16:32:28.292Z,15.70
2018-05-08T16:34:54.567Z,15.80
2018-05-08T16:37:20.823Z,16.10
2018-05-08T16:39:47.053Z,16.00
2018-05-08T16:42:13.231Z,15.90
2018-05-08T16:44:40.064Z,16.00
2018-05-08T16:47:06.418Z,16.50
2018-05-08T16:49:33.340Z,17.00
2018-05-08T16:52:00.351Z,16.60
2018-05-08T16:54:26.546Z,16.60
2018-05-08T16:56:52.749Z,17.10
2018-05-08T16:59:18.935Z,17.20
2018-05-08T17:01:45.871Z,17.00
2018-05-08T17:04:12.145Z,17.00
2018-05-08T17:06:39.210Z,18.10
2018-05-08T17:09:05.444Z,18.10
2018-05-08T17:11:31.774Z,17.90
2018-05-08T17:13:59.030Z,18.10
2018-05-08T17:16:25.327Z,18.00
2018-05-08T17:18:51.539Z,18.90
2018-05-08T17:21:17.758Z,18.60
2018-05-08T17:23:44.015Z,18.60
2018-05-08T17:26:10.458Z,19.30
2018-05-08T17:28:36.633Z,19.30
2018-05-08T17:31:03.349Z,18.60
2018-05-08T17:33:29.686Z,19.10
2018-05-08T17:35:55.934Z,19.30
2018-05-08T17:38:22.195Z,20.40
2018-05-08T17:40:48.405Z,20.10
2018-05-08T17:43:14.864Z,20.90
2018-05-08T17:45:41.821Z,21.80
2018-05-08T17:48:08.223Z,21.80
2018-05-08T17:50:34.495Z,22.80
2018-05-08T17:53:00.821Z,23.40
2018-05-08T17:55:27.135Z,24.10
2018-05-08T17:57:53.613Z,24.00
2018-05-08T18:00:19.834Z,23.70
2018-05-08T18:02:46.048Z,23.60
2018-05-08T18:05:12.232Z,23.80
2018-05-08T18:07:38.566Z,23.70
2018-05-08T18:10:05.421Z,24.00
2018-05-08T18:12:31.639Z,24.20
2018-05-08T18:14:57.904Z,24.40
2018-05-08T18:17:24.293Z,24.30
2018-05-08T18:19:51.675Z,24.80
2018-05-08T18:22:17.878Z,24.80
2018-05-08T18:24:44.060Z,24.60
2018-05-08T18:27:10.261Z,24.80
2018-05-08T18:29:36.438Z,24.70
2018-05-08T18:32:02.708Z,25.30
2018-05-08T18:34:28.960Z,25.40
2018-05-08T18:36:55.216Z,26.20
2018-05-08T18:39:21.747Z,26.60
2018-05-08T18:41:47.977Z,27.10
2018-05-08T18:44:15.339Z,27.40
2018-05-08T18:46:41.548Z,28.40
2018-05-08T18:49:07.738Z,28.80
2018-05-08T18:51:34.033Z,29.00
2018-05-08T18:54:00.358Z,29.90
2018-05-08T18:56:26.574Z,30.20
2018-05-08T18:58:52.744Z,31.60
2018-05-08T19:01:18.959Z,32.10
2018-05-08T19:03:45.203Z,32.60
2018-05-08T19:06:11.462Z,33.20
2018-05-08T19:08:37.654Z,34.20
2018-05-08T19:11:10.033Z,34.40
2018-05-08T19:13:36.217Z,34.90
2018-05-08T19:16:03.340Z,35.30
2018-05-08T19:18:35.851Z,36.20
2018-05-08T19:21:02.040Z,36.60
2018-05-08T19:23:29.884Z,37.30
2018-05-08T19:25:56.131Z,37.80
2018-05-08T19:28:28.676Z,38.00
2018-05-08T19:30:54.875Z,38.70
2018-05-08T19:33:21.146Z,38.90
2018-05-08T19:35:53.286Z,39.20
2018-05-08T19:38:22.090Z,39.80
2018-05-08T19:40:49.323Z,40.40
2018-05-08T19:43:15.582Z,40.40
2018-05-08T19:45:42.694Z,40.80
2018-05-08T19:48:10.113Z,41.00
2018-05-08T19:50:36.323Z,41.10
2018-05-08T19:53:02.565Z,42.10
2018-05-08T19:55:29.068Z,42.20
2018-05-08T19:57:55.393Z,41.70
2018-05-08T20:00:21.647Z,42.20
2018-05-08T20:02:48.247Z,42.60
2018-05-08T20:05:14.470Z,42.60
2018-05-08T20:07:41.547Z,43.50
2018-05-08T20:10:08.093Z,43.50
2018-05-08T20:12:34.325Z,43.60
2018-05-08T20:15:00.570Z,44.10
2018-05-08T20:17:26.805Z,44.50
2018-05-08T20:19:52.997Z,44.70
2018-05-08T20:22:19.637Z,44.90
2018-05-08T20:24:45.855Z,45.40
2018-05-08T20:27:12.874Z,45.70
2018-05-08T20:29:39.062Z,46.10
2018-05-08T20:32:05.287Z,46.40
2018-05-08T20:34:31.478Z,46.80
2018-05-08T20:36:57.699Z,46.50
2018-05-08T20:39:23.881Z,47.00
2018-05-08T20:41:50.084Z,47.00
2018-05-08T20:44:16.590Z,47.40
2018-05-08T20:46:42.815Z,47.50
2018-05-08T20:49:09.110Z,47.80
2018-05-08T20:51:42.102Z,48.10
2018-05-08T20:54:08.321Z,48.10
2018-05-08T20:56:34.484Z,47.90
2018-05-08T20:59:00.803Z,48.40
2018-05-08T21:01:27.004Z,48.40
2018-05-08T21:03:53.208Z,48.80
2018-05-08T21:06:19.605Z,49.00
2018-05-08T21:08:45.806Z,48.90
2018-05-08T21:11:13.014Z,48.90
2018-05-08T21:13:39.256Z,49.10
2018-05-08T21:16:05.455Z,48.80
2018-05-08T21:18:31.642Z,48.70
2018-05-08T21:20:57.837Z,48.50
2018-05-08T21:23:24.092Z,48.60
2018-05-08T21:25:50.323Z,48.50
2018-05-08T21:28:22.670Z,48.20
2018-05-08T21:30:54.987Z,48.40
2018-05-08T21:33:21.917Z,48.60
2018-05-08T21:35:48.252Z,48.40
2018-05-08T21:38:16.116Z,48.10
2018-05-08T21:40:43.143Z,47.30
2018-05-08T21:43:09.411Z,47.30
2018-05-08T21:45:35.583Z,47.20
2018-05-08T21:48:01.851Z,47.50
2018-05-08T21:50:28.785Z,47.30
2018-05-08T21:52:54.981Z,47.20
2018-05-08T21:55:21.194Z,47.30
2018-05-08T21:57:47.369Z,47.80
2018-05-08T22:00:14.316Z,47.60
2018-05-08T22:02:41.253Z,47.90
2018-05-08T22:05:07.430Z,47.70
2018-05-08T22:07:33.642Z,47.80
2018-05-08T22:09:59.840Z,47.60
2018-05-08T22:12:26.087Z,47.90
2018-05-08T22:14:52.279Z,47.90
2018-05-08T22:17:18.450Z,47.90
2018-05-08T22:19:44.630Z,48.30
2018-05-08T22:22:10.802Z,48.60
2018-05-08T22:24:37.050Z,49.50
2018-05-08T22:27:03.241Z,49.70
2018-05-08T22:29:29.429Z,50.00
2018-05-08T22:31:55.611Z,50.20
2018-05-08T22:34:21.807Z,50.80
2018-05-08T22:36:47.972Z,51.20
2018-05-08T22:39:14.205Z,51.70
2018-05-08T22:41:40.387Z,52.10
2018-05-08T22:44:07.314Z,52.80
2018-05-08T22:46:33.488Z,52.70
2018-05-08T22:48:59.713Z,53.10
2018-05-08T22:51:25.899Z,53.20
2018-05-08T22:53:52.095Z,53.60
2018-05-08T22:56:18.267Z,53.90
2018-05-08T22:58:44.453Z,54.00
2018-05-08T23:01:10.617Z,53.80
2018-05-08T23:03:36.813Z,53.80
2018-05-08T23:06:03.003Z,54.20
2018-05-08T23:08:29.266Z,53.90
2018-05-08T23:10:55.438Z,54.50
2018-05-08T23:13:22.336Z,54.00
2018-05-08T23:15:48.535Z,54.00
2018-05-08T23:18:14.721Z,54.10
2018-05-08T23:20:41.649Z,54.10
2018-05-08T23:23:07.831Z,54.10
2018-05-08T23:25:34.025Z,54.10
2018-05-08T23:28:01.070Z,54.70
2018-05-08T23:30:27.250Z,54.60
2018-05-08T23:32:53.448Z,54.80
2018-05-08T23:35:19.649Z,55.20
2018-05-08T23:37:46.591Z,55.30
2018-05-08T23:40:12.785Z,55.20
2018-05-08T23:42:38.946Z,55.80
2018-05-08T23:45:05.146Z,56.00
2018-05-08T23:47:31.381Z,55.60
2018-05-08T23:49:57.573Z,56.00
2018-05-08T23:52:23.728Z,55.90
2018-05-08T23:54:49.930Z,56.10
2018-05-08T23:57:16.086Z,56.80
2018-05-08T23:59:42.280Z,57.20
